Archival Weather

Republic

Farmingdale, New York (KFRG)

Report from: Sunday, February 18, 2024 3:53 AM EST
Current time: Saturday, June 22, 2024 4:56 AM EDT

Current weather – Weather history – Daily summaries
Weather forecast

Temperature-6.7°C (19.9°F)
Dew point-11.7°C (10.9°F)
Winds Calm
Visibility10 mi. (16.1 km)
Clouds Sky clear
Altimeter29.94 in.Hg (1014 mB)
Relative humidity67 %
Density altitude-2,675 ft. (-815 m)
Sea-level pressure101.4 kPa (1014 mB, 29.94 in.Hg)
Remarks Fully automated report
Automated weather observing station without precipitation discriminator
Freezing rain sensor not operating
Pressure rising more slowly
Flight conditions Visual Meteorological Conditions
Raw dataKFRG 180853Z AUTO 00000KT 10SM CLR M07/M12 A2994 RMK AO1 SLP140 T10671117 51010 FZRANO
An error has occurred. This application may no longer respond until reloaded. Reload 🗙